Pagrindinis puslapis
METAR-TAF:

METAR-TAF

Oro uostai :

General Santos, Filipinai

platuma: 06-03-29N, ilguma: 125-05-46E, Aukštis: 154 m

Dabartinis oras

Ataskaita buvo paskelbta 10 valandos ir 42 minutes, ne 09:00 UTC
Vėjas 4 kt iš Pietų
Temperatūra 28°C
Drėgmė 70%
Slėgis 1007 hPa
Matomumas 10 km arba daugiau
Mažai debesys ne aukštis 1800 ft, Liūtiniai kamuoliniai debesys.
Liūtis kaimynystėje

METAR: RPMR 300900Z 18004KT 9999 VCSH FEW018CB 28/22 Q1007 RMK A2974 CB E VCSH NW

Laikas: 03:42 (19:42 UTC)

Prognozė

Ataskaita buvo paskelbta 2 valandos ir 42 minutes, ne 17:00 UTC
Prognozė galioja nuo 30 metu 18 UTC su 01 metu 18 UTC
Vėjas 6 kt iš Pietų
Matomumas 10 km arba daugiau
Mažai debesys ne aukštis 1800 ft
Su prošvaistėmis ne aukštis 25000 ft
Laikinai
nuo 30 metu 18 UTC su 30 metu 24 UTC
Vėjas 3 kt iš Vakarų/Šiaurės Vakarų
Mažai debesys ne aukštis 1800 ft
Su prošvaistėmis ne aukštis 8000 ft

TAF: RPMR 301700Z 3018/0118 18006KT 9999 FEW018 BKN250 TEMPO 3018/3024 29003KT FEW018 BKN080

Orai ataskaitas ir orų prognozės (METAR, TAF).

turimą stotys yra geltonos ir raudonos taškus žemėlapyje.

Perkelti pele per norėdami pamatyti stoties vardą.

Tada spustelėkite, norėdami matyti oro stebėjimo ir prognozės.

Norėdami pakeisti žemėlapį: spustelėkite ant žalios mygtukų su juodo kryžiaus žemyn,; žalią mygtuką su brūkšneliu, jei norite nutolinti; arba žalių rodyklių gretimoms žemėlapius.


METAR-TAF: